sensor_id;sensor_type;location;lat;lon;timestamp;temperature;humidity
48019;DHT22;33786;48.690;9.562;2023-09-30T00:00:06;14.90;99.90
48019;DHT22;33786;48.690;9.562;2023-09-30T00:02:35;15.00;99.90
48019;DHT22;33786;48.690;9.562;2023-09-30T00:05:02;15.10;99.90
48019;DHT22;33786;48.690;9.562;2023-09-30T00:07:30;15.10;99.90
48019;DHT22;33786;48.690;9.562;2023-09-30T00:09:58;15.20;99.90
48019;DHT22;33786;48.690;9.562;2023-09-30T00:12:25;15.20;99.90
48019;DHT22;33786;48.690;9.562;2023-09-30T00:14:52;15.10;99.90
48019;DHT22;33786;48.690;9.562;2023-09-30T00:17:20;15.20;99.90
48019;DHT22;33786;48.690;9.562;2023-09-30T00:19:46;15.20;99.90
48019;DHT22;33786;48.690;9.562;2023-09-30T00:22:13;15.20;99.90
48019;DHT22;33786;48.690;9.562;2023-09-30T00:24:40;15.10;99.90
48019;DHT22;33786;48.690;9.562;2023-09-30T00:27:07;15.00;99.90
48019;DHT22;33786;48.690;9.562;2023-09-30T00:29:34;15.00;99.90
48019;DHT22;33786;48.690;9.562;2023-09-30T00:32:02;15.00;99.90
48019;DHT22;33786;48.690;9.562;2023-09-30T00:34:34;15.00;99.90
48019;DHT22;33786;48.690;9.562;2023-09-30T00:37:01;14.90;99.90
48019;DHT22;33786;48.690;9.562;2023-09-30T00:39:28;14.90;99.90
48019;DHT22;33786;48.690;9.562;2023-09-30T00:41:57;14.80;99.90
48019;DHT22;33786;48.690;9.562;2023-09-30T00:44:28;14.80;99.90
48019;DHT22;33786;48.690;9.562;2023-09-30T00:46:54;14.80;99.90
48019;DHT22;33786;48.690;9.562;2023-09-30T00:49:22;14.90;99.90
48019;DHT22;33786;48.690;9.562;2023-09-30T00:51:50;15.00;99.90
48019;DHT22;33786;48.690;9.562;2023-09-30T00:54:18;15.00;99.90
48019;DHT22;33786;48.690;9.562;2023-09-30T00:56:46;15.10;99.90
48019;DHT22;33786;48.690;9.562;2023-09-30T00:59:13;15.10;99.90
48019;DHT22;33786;48.690;9.562;2023-09-30T01:01:44;15.10;99.90
48019;DHT22;33786;48.690;9.562;2023-09-30T01:04:11;15.10;99.90
48019;DHT22;33786;48.690;9.562;2023-09-30T01:06:38;15.20;99.90
48019;DHT22;33786;48.690;9.562;2023-09-30T01:09:05;15.20;99.90
48019;DHT22;33786;48.690;9.562;2023-09-30T01:11:33;15.20;99.90
48019;DHT22;33786;48.690;9.562;2023-09-30T01:14:00;15.20;99.90
48019;DHT22;33786;48.690;9.562;2023-09-30T01:16:27;15.20;99.90
48019;DHT22;33786;48.690;9.562;2023-09-30T01:18:54;15.20;99.90
48019;DHT22;33786;48.690;9.562;2023-09-30T01:21:21;15.30;99.90
48019;DHT22;33786;48.690;9.562;2023-09-30T01:23:48;15.30;99.90
48019;DHT22;33786;48.690;9.562;2023-09-30T01:26:15;15.30;99.90
48019;DHT22;33786;48.690;9.562;2023-09-30T01:28:42;15.40;99.90
48019;DHT22;33786;48.690;9.562;2023-09-30T01:31:08;15.50;99.90
48019;DHT22;33786;48.690;9.562;2023-09-30T01:33:35;15.50;99.90
48019;DHT22;33786;48.690;9.562;2023-09-30T01:36:03;15.40;99.90
48019;DHT22;33786;48.690;9.562;2023-09-30T01:38:30;15.40;99.90
48019;DHT22;33786;48.690;9.562;2023-09-30T01:40:56;15.40;99.90
48019;DHT22;33786;48.690;9.562;2023-09-30T01:43:26;15.40;99.90
48019;DHT22;33786;48.690;9.562;2023-09-30T01:45:53;15.30;99.90
48019;DHT22;33786;48.690;9.562;2023-09-30T01:48:20;15.30;99.90
48019;DHT22;33786;48.690;9.562;2023-09-30T01:50:47;15.20;99.90
48019;DHT22;33786;48.690;9.562;2023-09-30T01:53:14;15.20;99.90
48019;DHT22;33786;48.690;9.562;2023-09-30T01:55:41;15.10;99.90
48019;DHT22;33786;48.690;9.562;2023-09-30T01:58:09;15.10;99.90
48019;DHT22;33786;48.690;9.562;2023-09-30T02:00:38;15.10;99.90
48019;DHT22;33786;48.690;9.562;2023-09-30T02:03:05;15.00;99.90
48019;DHT22;33786;48.690;9.562;2023-09-30T02:05:32;15.00;99.90
48019;DHT22;33786;48.690;9.562;2023-09-30T02:07:59;14.90;99.90
48019;DHT22;33786;48.690;9.562;2023-09-30T02:10:26;15.00;99.90
48019;DHT22;33786;48.690;9.562;2023-09-30T02:12:53;15.00;99.90
48019;DHT22;33786;48.690;9.562;2023-09-30T02:15:20;15.00;99.90
48019;DHT22;33786;48.690;9.562;2023-09-30T02:17:47;14.90;99.90
48019;DHT22;33786;48.690;9.562;2023-09-30T02:20:15;14.90;99.90
48019;DHT22;33786;48.690;9.562;2023-09-30T02:22:46;14.90;99.90
48019;DHT22;33786;48.690;9.562;2023-09-30T02:25:14;15.00;99.90
48019;DHT22;33786;48.690;9.562;2023-09-30T02:27:41;15.00;99.90
48019;DHT22;33786;48.690;9.562;2023-09-30T02:30:09;15.10;99.90
48019;DHT22;33786;48.690;9.562;2023-09-30T02:32:40;15.10;99.90
48019;DHT22;33786;48.690;9.562;2023-09-30T02:35:08;15.20;99.90
48019;DHT22;33786;48.690;9.562;2023-09-30T02:37:35;15.30;99.90
48019;DHT22;33786;48.690;9.562;2023-09-30T02:40:05;15.30;99.90
48019;DHT22;33786;48.690;9.562;2023-09-30T02:42:40;15.30;99.90
48019;DHT22;33786;48.690;9.562;2023-09-30T02:45:07;15.30;99.90
48019;DHT22;33786;48.690;9.562;2023-09-30T02:47:35;15.30;99.90
48019;DHT22;33786;48.690;9.562;2023-09-30T02:50:05;15.30;99.90
48019;DHT22;33786;48.690;9.562;2023-09-30T02:52:32;15.30;99.90
48019;DHT22;33786;48.690;9.562;2023-09-30T02:54:59;15.30;99.90
48019;DHT22;33786;48.690;9.562;2023-09-30T02:57:26;15.30;99.90
48019;DHT22;33786;48.690;9.562;2023-09-30T02:59:54;15.30;99.90
48019;DHT22;33786;48.690;9.562;2023-09-30T03:02:23;15.30;99.90
48019;DHT22;33786;48.690;9.562;2023-09-30T03:04:50;15.30;99.90
48019;DHT22;33786;48.690;9.562;2023-09-30T03:07:19;15.30;99.90
48019;DHT22;33786;48.690;9.562;2023-09-30T03:09:47;15.30;99.90
48019;DHT22;33786;48.690;9.562;2023-09-30T03:12:14;15.30;99.90
48019;DHT22;33786;48.690;9.562;2023-09-30T03:14:41;15.30;99.90
48019;DHT22;33786;48.690;9.562;2023-09-30T03:17:09;15.20;99.90
48019;DHT22;33786;48.690;9.562;2023-09-30T03:19:39;15.20;99.90
48019;DHT22;33786;48.690;9.562;2023-09-30T03:22:06;15.10;99.90
48019;DHT22;33786;48.690;9.562;2023-09-30T03:24:38;15.10;99.90
48019;DHT22;33786;48.690;9.562;2023-09-30T03:27:06;15.00;99.90
48019;DHT22;33786;48.690;9.562;2023-09-30T03:29:37;14.90;99.90
48019;DHT22;33786;48.690;9.562;2023-09-30T03:32:05;14.90;99.90
48019;DHT22;33786;48.690;9.562;2023-09-30T03:34:33;14.90;99.90
48019;DHT22;33786;48.690;9.562;2023-09-30T03:37:03;14.90;99.90
48019;DHT22;33786;48.690;9.562;2023-09-30T03:39:33;14.90;99.90
48019;DHT22;33786;48.690;9.562;2023-09-30T03:42:00;14.90;99.90
48019;DHT22;33786;48.690;9.562;2023-09-30T03:44:27;14.90;99.90
48019;DHT22;33786;48.690;9.562;2023-09-30T03:46:54;14.90;99.90
48019;DHT22;33786;48.690;9.562;2023-09-30T03:49:21;14.90;99.90
48019;DHT22;33786;48.690;9.562;2023-09-30T03:51:48;14.90;99.90
48019;DHT22;33786;48.690;9.562;2023-09-30T03:54:17;15.00;99.90
48019;DHT22;33786;48.690;9.562;2023-09-30T03:56:45;15.00;99.90
48019;DHT22;33786;48.690;9.562;2023-09-30T03:59:13;15.10;99.90
48019;DHT22;33786;48.690;9.562;2023-09-30T04:01:40;15.10;99.90
48019;DHT22;33786;48.690;9.562;2023-09-30T04:04:07;15.10;99.90
48019;DHT22;33786;48.690;9.562;2023-09-30T04:06:37;15.00;99.90
48019;DHT22;33786;48.690;9.562;2023-09-30T04:09:07;15.10;99.90
48019;DHT22;33786;48.690;9.562;2023-09-30T04:11:37;15.10;99.90
48019;DHT22;33786;48.690;9.562;2023-09-30T04:14:04;15.10;99.90
48019;DHT22;33786;48.690;9.562;2023-09-30T04:16:32;15.00;99.90
48019;DHT22;33786;48.690;9.562;2023-09-30T04:18:59;15.00;99.90
48019;DHT22;33786;48.690;9.562;2023-09-30T04:21:26;15.00;99.90
48019;DHT22;33786;48.690;9.562;2023-09-30T04:23:55;15.00;99.90
48019;DHT22;33786;48.690;9.562;2023-09-30T04:26:22;14.90;99.90
48019;DHT22;33786;48.690;9.562;2023-09-30T04:28:49;14.90;99.90
48019;DHT22;33786;48.690;9.562;2023-09-30T04:31:16;14.90;99.90
48019;DHT22;33786;48.690;9.562;2023-09-30T04:33:43;14.90;99.90
48019;DHT22;33786;48.690;9.562;2023-09-30T04:36:10;14.90;99.90
48019;DHT22;33786;48.690;9.562;2023-09-30T04:38:37;14.90;99.90
48019;DHT22;33786;48.690;9.562;2023-09-30T04:41:04;14.90;99.90
48019;DHT22;33786;48.690;9.562;2023-09-30T04:43:34;14.90;99.90
48019;DHT22;33786;48.690;9.562;2023-09-30T04:46:01;15.00;99.90
48019;DHT22;33786;48.690;9.562;2023-09-30T04:48:28;15.10;99.90
48019;DHT22;33786;48.690;9.562;2023-09-30T04:50:55;15.10;99.90
48019;DHT22;33786;48.690;9.562;2023-09-30T04:53:22;15.10;99.90
48019;DHT22;33786;48.690;9.562;2023-09-30T04:55:49;15.10;99.90
48019;DHT22;33786;48.690;9.562;2023-09-30T04:58:17;15.20;99.90
48019;DHT22;33786;48.690;9.562;2023-09-30T05:00:44;15.20;99.90
48019;DHT22;33786;48.690;9.562;2023-09-30T05:03:11;15.20;99.90
48019;DHT22;33786;48.690;9.562;2023-09-30T05:05:39;15.10;99.90
48019;DHT22;33786;48.690;9.562;2023-09-30T05:08:06;15.10;99.90
48019;DHT22;33786;48.690;9.562;2023-09-30T05:10:33;15.10;99.90
48019;DHT22;33786;48.690;9.562;2023-09-30T05:13:00;15.10;99.90
48019;DHT22;33786;48.690;9.562;2023-09-30T05:15:27;15.00;99.90
48019;DHT22;33786;48.690;9.562;2023-09-30T05:17:56;15.10;99.90
48019;DHT22;33786;48.690;9.562;2023-09-30T05:20:23;15.10;99.90
48019;DHT22;33786;48.690;9.562;2023-09-30T05:22:50;15.00;99.90
48019;DHT22;33786;48.690;9.562;2023-09-30T05:25:17;15.00;99.90
48019;DHT22;33786;48.690;9.562;2023-09-30T05:27:45;15.00;99.90
48019;DHT22;33786;48.690;9.562;2023-09-30T05:30:15;15.00;99.90
48019;DHT22;33786;48.690;9.562;2023-09-30T05:32:42;14.90;99.90
48019;DHT22;33786;48.690;9.562;2023-09-30T05:35:09;15.00;99.90
48019;DHT22;33786;48.690;9.562;2023-09-30T05:37:40;15.10;99.90
48019;DHT22;33786;48.690;9.562;2023-09-30T05:40:07;15.10;99.90
48019;DHT22;33786;48.690;9.562;2023-09-30T05:42:45;15.20;99.90
48019;DHT22;33786;48.690;9.562;2023-09-30T05:45:12;15.20;99.90
48019;DHT22;33786;48.690;9.562;2023-09-30T05:47:39;15.20;99.90
48019;DHT22;33786;48.690;9.562;2023-09-30T05:50:07;15.20;99.90
48019;DHT22;33786;48.690;9.562;2023-09-30T05:52:35;15.20;99.90
48019;DHT22;33786;48.690;9.562;2023-09-30T05:55:02;15.30;99.90
48019;DHT22;33786;48.690;9.562;2023-09-30T05:57:29;15.30;99.90
48019;DHT22;33786;48.690;9.562;2023-09-30T05:59:56;15.30;99.90
48019;DHT22;33786;48.690;9.562;2023-09-30T06:02:23;15.30;99.90
48019;DHT22;33786;48.690;9.562;2023-09-30T06:04:50;15.40;99.90
48019;DHT22;33786;48.690;9.562;2023-09-30T06:07:18;15.50;99.90
48019;DHT22;33786;48.690;9.562;2023-09-30T06:09:46;15.70;99.90
48019;DHT22;33786;48.690;9.562;2023-09-30T06:12:16;15.90;99.90
48019;DHT22;33786;48.690;9.562;2023-09-30T06:14:43;16.20;99.90
48019;DHT22;33786;48.690;9.562;2023-09-30T06:17:10;16.40;99.90
48019;DHT22;33786;48.690;9.562;2023-09-30T06:19:37;16.60;99.90
48019;DHT22;33786;48.690;9.562;2023-09-30T06:22:04;16.80;99.90
48019;DHT22;33786;48.690;9.562;2023-09-30T06:24:31;16.80;99.90
48019;DHT22;33786;48.690;9.562;2023-09-30T06:26:58;16.70;99.90
48019;DHT22;33786;48.690;9.562;2023-09-30T06:29:25;16.70;99.90
48019;DHT22;33786;48.690;9.562;2023-09-30T06:31:53;16.60;99.90
48019;DHT22;33786;48.690;9.562;2023-09-30T06:34:20;16.70;99.90
48019;DHT22;33786;48.690;9.562;2023-09-30T06:36:47;16.90;99.90
48019;DHT22;33786;48.690;9.562;2023-09-30T06:39:14;17.30;99.90
48019;DHT22;33786;48.690;9.562;2023-09-30T06:41:41;17.80;99.90
48019;DHT22;33786;48.690;9.562;2023-09-30T06:44:07;18.30;99.90
48019;DHT22;33786;48.690;9.562;2023-09-30T06:46:34;18.70;99.90
48019;DHT22;33786;48.690;9.562;2023-09-30T06:49:01;19.00;99.90
48019;DHT22;33786;48.690;9.562;2023-09-30T06:51:28;19.00;99.90
48019;DHT22;33786;48.690;9.562;2023-09-30T06:53:55;18.80;99.90
48019;DHT22;33786;48.690;9.562;2023-09-30T06:56:22;18.70;99.90
48019;DHT22;33786;48.690;9.562;2023-09-30T06:58:49;18.90;99.90
48019;DHT22;33786;48.690;9.562;2023-09-30T07:01:15;19.30;99.90
48019;DHT22;33786;48.690;9.562;2023-09-30T07:03:45;19.90;99.90
48019;DHT22;33786;48.690;9.562;2023-09-30T07:06:12;20.50;99.90
48019;DHT22;33786;48.690;9.562;2023-09-30T07:08:39;20.80;99.90
48019;DHT22;33786;48.690;9.562;2023-09-30T07:11:05;21.40;99.90
48019;DHT22;33786;48.690;9.562;2023-09-30T07:13:34;21.70;99.90
48019;DHT22;33786;48.690;9.562;2023-09-30T07:16:02;21.30;99.90
48019;DHT22;33786;48.690;9.562;2023-09-30T07:18:29;20.90;99.90
48019;DHT22;33786;48.690;9.562;2023-09-30T07:20:56;20.60;99.90
48019;DHT22;33786;48.690;9.562;2023-09-30T07:23:22;20.60;99.90
48019;DHT22;33786;48.690;9.562;2023-09-30T07:25:49;21.60;99.80
48019;DHT22;33786;48.690;9.562;2023-09-30T07:28:16;23.10;97.50
48019;DHT22;33786;48.690;9.562;2023-09-30T07:30:43;24.20;95.50
48019;DHT22;33786;48.690;9.562;2023-09-30T07:33:10;25.20;94.00
48019;DHT22;33786;48.690;9.562;2023-09-30T07:35:37;26.20;92.50
48019;DHT22;33786;48.690;9.562;2023-09-30T07:38:05;26.70;91.40
48019;DHT22;33786;48.690;9.562;2023-09-30T07:40:32;26.60;90.80
48019;DHT22;33786;48.690;9.562;2023-09-30T07:42:59;26.70;90.30
48019;DHT22;33786;48.690;9.562;2023-09-30T07:45:26;25.90;90.70
48019;DHT22;33786;48.690;9.562;2023-09-30T07:47:55;26.20;90.50
48019;DHT22;33786;48.690;9.562;2023-09-30T07:50:22;25.80;90.80
48019;DHT22;33786;48.690;9.562;2023-09-30T07:52:48;25.00;91.90
48019;DHT22;33786;48.690;9.562;2023-09-30T07:55:15;24.10;92.90
48019;DHT22;33786;48.690;9.562;2023-09-30T07:57:42;24.30;92.60
48019;DHT22;33786;48.690;9.562;2023-09-30T08:00:10;24.70;91.70
48019;DHT22;33786;48.690;9.562;2023-09-30T08:02:43;24.70;91.30
48019;DHT22;33786;48.690;9.562;2023-09-30T08:05:10;24.60;91.50
48019;DHT22;33786;48.690;9.562;2023-09-30T08:07:37;25.40;91.00
48019;DHT22;33786;48.690;9.562;2023-09-30T08:10:03;26.50;89.60
48019;DHT22;33786;48.690;9.562;2023-09-30T08:12:32;27.60;87.60
48019;DHT22;33786;48.690;9.562;2023-09-30T08:14:59;29.30;84.10
48019;DHT22;33786;48.690;9.562;2023-09-30T08:17:27;28.70;83.50
48019;DHT22;33786;48.690;9.562;2023-09-30T08:19:54;28.50;83.10
48019;DHT22;33786;48.690;9.562;2023-09-30T08:22:20;28.30;83.50
48019;DHT22;33786;48.690;9.562;2023-09-30T08:24:52;27.60;84.80
48019;DHT22;33786;48.690;9.562;2023-09-30T08:27:19;27.20;84.40
48019;DHT22;33786;48.690;9.562;2023-09-30T08:29:46;26.60;85.80
48019;DHT22;33786;48.690;9.562;2023-09-30T08:32:12;26.90;85.00
48019;DHT22;33786;48.690;9.562;2023-09-30T08:34:39;26.30;86.20
48019;DHT22;33786;48.690;9.562;2023-09-30T08:37:06;25.90;86.80
48019;DHT22;33786;48.690;9.562;2023-09-30T08:39:37;25.30;88.00
48019;DHT22;33786;48.690;9.562;2023-09-30T08:42:05;25.20;88.30
48019;DHT22;33786;48.690;9.562;2023-09-30T08:44:34;25.20;87.50
48019;DHT22;33786;48.690;9.562;2023-09-30T08:47:02;25.50;88.00
48019;DHT22;33786;48.690;9.562;2023-09-30T08:49:30;25.60;87.60
48019;DHT22;33786;48.690;9.562;2023-09-30T08:52:00;25.00;88.60
48019;DHT22;33786;48.690;9.562;2023-09-30T08:54:29;24.60;90.40
48019;DHT22;33786;48.690;9.562;2023-09-30T08:56:56;24.90;89.90
48019;DHT22;33786;48.690;9.562;2023-09-30T08:59:23;26.20;87.50
48019;DHT22;33786;48.690;9.562;2023-09-30T09:01:51;27.60;85.10
48019;DHT22;33786;48.690;9.562;2023-09-30T09:04:18;28.50;83.30
48019;DHT22;33786;48.690;9.562;2023-09-30T09:06:45;28.90;79.80
48019;DHT22;33786;48.690;9.562;2023-09-30T09:09:16;29.10;79.80
48019;DHT22;33786;48.690;9.562;2023-09-30T09:11:49;29.80;78.50
48019;DHT22;33786;48.690;9.562;2023-09-30T09:14:16;29.40;77.50
48019;DHT22;33786;48.690;9.562;2023-09-30T09:16:53;29.50;78.10
48019;DHT22;33786;48.690;9.562;2023-09-30T09:19:20;30.30;76.60
48019;DHT22;33786;48.690;9.562;2023-09-30T09:22:00;30.90;75.20
48019;DHT22;33786;48.690;9.562;2023-09-30T09:29:51;31.50;72.90
48019;DHT22;33786;48.690;9.562;2023-09-30T09:32:18;31.90;72.00
48019;DHT22;33786;48.690;9.562;2023-09-30T09:34:45;31.50;71.70
48019;DHT22;33786;48.690;9.562;2023-09-30T09:37:26;31.90;71.00
48019;DHT22;33786;48.690;9.562;2023-09-30T09:39:55;30.40;73.00
48019;DHT22;33786;48.690;9.562;2023-09-30T09:42:24;30.20;73.10
48019;DHT22;33786;48.690;9.562;2023-09-30T09:44:54;31.00;72.40
48019;DHT22;33786;48.690;9.562;2023-09-30T09:47:21;31.10;71.80
48019;DHT22;33786;48.690;9.562;2023-09-30T09:49:50;31.20;71.90
48019;DHT22;33786;48.690;9.562;2023-09-30T09:52:17;31.80;72.30
48019;DHT22;33786;48.690;9.562;2023-09-30T09:54:45;31.00;71.20
48019;DHT22;33786;48.690;9.562;2023-09-30T09:57:13;29.90;73.30
48019;DHT22;33786;48.690;9.562;2023-09-30T09:59:41;29.70;74.10
48019;DHT22;33786;48.690;9.562;2023-09-30T10:02:12;30.60;72.60
48019;DHT22;33786;48.690;9.562;2023-09-30T10:04:43;30.80;71.20
48019;DHT22;33786;48.690;9.562;2023-09-30T10:07:20;30.40;71.70
48019;DHT22;33786;48.690;9.562;2023-09-30T10:09:49;30.90;70.50
48019;DHT22;33786;48.690;9.562;2023-09-30T10:12:18;29.60;70.80
48019;DHT22;33786;48.690;9.562;2023-09-30T10:14:46;28.00;73.80
48019;DHT22;33786;48.690;9.562;2023-09-30T10:17:12;26.60;76.90
48019;DHT22;33786;48.690;9.562;2023-09-30T10:22:36;24.90;81.60
48019;DHT22;33786;48.690;9.562;2023-09-30T10:25:32;25.40;81.40
48019;DHT22;33786;48.690;9.562;2023-09-30T10:27:50;26.30;79.30
48019;DHT22;33786;48.690;9.562;2023-09-30T10:30:19;27.30;77.60
48019;DHT22;33786;48.690;9.562;2023-09-30T10:35:20;27.50;75.60
48019;DHT22;33786;48.690;9.562;2023-09-30T10:37:47;28.20;74.90
48019;DHT22;33786;48.690;9.562;2023-09-30T10:42:54;28.60;73.40
48019;DHT22;33786;48.690;9.562;2023-09-30T10:50:53;27.90;74.80
48019;DHT22;33786;48.690;9.562;2023-09-30T10:53:22;26.70;77.00
48019;DHT22;33786;48.690;9.562;2023-09-30T10:55:55;25.90;78.10
48019;DHT22;33786;48.690;9.562;2023-09-30T10:58:41;25.10;79.50
48019;DHT22;33786;48.690;9.562;2023-09-30T11:01:09;25.10;79.60
48019;DHT22;33786;48.690;9.562;2023-09-30T11:03:36;25.30;78.30
48019;DHT22;33786;48.690;9.562;2023-09-30T11:06:03;25.90;76.50
48019;DHT22;33786;48.690;9.562;2023-09-30T11:08:38;26.80;74.50
48019;DHT22;33786;48.690;9.562;2023-09-30T11:11:06;26.40;73.60
48019;DHT22;33786;48.690;9.562;2023-09-30T11:13:34;26.20;73.90
48019;DHT22;33786;48.690;9.562;2023-09-30T11:16:05;26.00;74.10
48019;DHT22;33786;48.690;9.562;2023-09-30T11:18:32;25.70;75.70
48019;DHT22;33786;48.690;9.562;2023-09-30T11:21:07;25.80;74.80
48019;DHT22;33786;48.690;9.562;2023-09-30T11:23:34;25.30;74.90
48019;DHT22;33786;48.690;9.562;2023-09-30T11:26:01;25.00;76.30
48019;DHT22;33786;48.690;9.562;2023-09-30T11:28:35;25.00;77.10
48019;DHT22;33786;48.690;9.562;2023-09-30T11:31:02;24.80;76.80
48019;DHT22;33786;48.690;9.562;2023-09-30T11:33:29;24.50;78.20
48019;DHT22;33786;48.690;9.562;2023-09-30T11:38:28;24.10;80.60
48019;DHT22;33786;48.690;9.562;2023-09-30T11:40:58;24.30;81.10
48019;DHT22;33786;48.690;9.562;2023-09-30T11:43:25;24.20;79.60
48019;DHT22;33786;48.690;9.562;2023-09-30T11:45:52;23.60;80.70
48019;DHT22;33786;48.690;9.562;2023-09-30T11:48:19;23.10;81.90
48019;DHT22;33786;48.690;9.562;2023-09-30T11:50:49;23.10;82.40
48019;DHT22;33786;48.690;9.562;2023-09-30T11:53:17;23.20;82.50
48019;DHT22;33786;48.690;9.562;2023-09-30T11:55:44;23.60;80.60
48019;DHT22;33786;48.690;9.562;2023-09-30T11:58:12;23.60;80.50
48019;DHT22;33786;48.690;9.562;2023-09-30T12:00:44;23.50;80.20
48019;DHT22;33786;48.690;9.562;2023-09-30T12:03:12;23.40;80.40
48019;DHT22;33786;48.690;9.562;2023-09-30T12:05:39;23.60;80.90
48019;DHT22;33786;48.690;9.562;2023-09-30T12:08:06;23.90;80.00
48019;DHT22;33786;48.690;9.562;2023-09-30T12:10:33;23.90;79.50
48019;DHT22;33786;48.690;9.562;2023-09-30T12:13:01;24.30;78.00
48019;DHT22;33786;48.690;9.562;2023-09-30T12:15:28;24.60;76.60
48019;DHT22;33786;48.690;9.562;2023-09-30T12:17:55;24.60;76.30
48019;DHT22;33786;48.690;9.562;2023-09-30T12:20:22;24.30;77.30
48019;DHT22;33786;48.690;9.562;2023-09-30T12:22:49;24.40;77.00
48019;DHT22;33786;48.690;9.562;2023-09-30T12:25:18;24.60;78.00
48019;DHT22;33786;48.690;9.562;2023-09-30T12:27:48;24.20;77.30
48019;DHT22;33786;48.690;9.562;2023-09-30T12:30:15;24.10;77.60
48019;DHT22;33786;48.690;9.562;2023-09-30T12:32:42;23.80;77.40
48019;DHT22;33786;48.690;9.562;2023-09-30T12:35:09;23.90;77.50
48019;DHT22;33786;48.690;9.562;2023-09-30T12:37:36;24.10;78.40
48019;DHT22;33786;48.690;9.562;2023-09-30T12:40:05;24.30;76.90
48019;DHT22;33786;48.690;9.562;2023-09-30T12:42:33;24.70;77.20
48019;DHT22;33786;48.690;9.562;2023-09-30T12:45:03;24.90;75.40
48019;DHT22;33786;48.690;9.562;2023-09-30T12:47:32;24.80;76.20
48019;DHT22;33786;48.690;9.562;2023-09-30T12:49:58;24.80;75.60
48019;DHT22;33786;48.690;9.562;2023-09-30T12:52:25;24.70;76.50
48019;DHT22;33786;48.690;9.562;2023-09-30T12:54:52;25.10;76.50
48019;DHT22;33786;48.690;9.562;2023-09-30T12:57:19;24.90;75.60
48019;DHT22;33786;48.690;9.562;2023-09-30T12:59:46;25.10;76.50
48019;DHT22;33786;48.690;9.562;2023-09-30T13:02:13;24.70;76.30
48019;DHT22;33786;48.690;9.562;2023-09-30T13:04:40;24.20;76.90
48019;DHT22;33786;48.690;9.562;2023-09-30T13:07:09;24.00;77.50
48019;DHT22;33786;48.690;9.562;2023-09-30T13:09:38;23.80;77.70
48019;DHT22;33786;48.690;9.562;2023-09-30T13:12:05;23.30;77.70
48019;DHT22;33786;48.690;9.562;2023-09-30T13:14:31;23.40;78.70
48019;DHT22;33786;48.690;9.562;2023-09-30T13:16:58;23.00;78.60
48019;DHT22;33786;48.690;9.562;2023-09-30T13:19:25;22.80;79.40
48019;DHT22;33786;48.690;9.562;2023-09-30T13:21:52;22.70;79.10
48019;DHT22;33786;48.690;9.562;2023-09-30T13:24:19;22.60;78.70
48019;DHT22;33786;48.690;9.562;2023-09-30T13:26:46;22.60;78.90
48019;DHT22;33786;48.690;9.562;2023-09-30T13:29:13;22.50;79.80
48019;DHT22;33786;48.690;9.562;2023-09-30T13:31:42;22.20;79.90
48019;DHT22;33786;48.690;9.562;2023-09-30T13:34:10;22.10;80.50
48019;DHT22;33786;48.690;9.562;2023-09-30T13:36:38;22.00;80.40
48019;DHT22;33786;48.690;9.562;2023-09-30T13:39:05;22.10;79.80
48019;DHT22;33786;48.690;9.562;2023-09-30T13:41:35;22.20;79.70
48019;DHT22;33786;48.690;9.562;2023-09-30T13:44:02;22.30;79.60
48019;DHT22;33786;48.690;9.562;2023-09-30T13:46:29;22.40;79.80
48019;DHT22;33786;48.690;9.562;2023-09-30T13:48:57;22.40;79.70
48019;DHT22;33786;48.690;9.562;2023-09-30T13:51:24;22.50;79.00
48019;DHT22;33786;48.690;9.562;2023-09-30T13:53:52;22.60;79.40
48019;DHT22;33786;48.690;9.562;2023-09-30T13:56:22;22.70;79.20
48019;DHT22;33786;48.690;9.562;2023-09-30T13:58:49;22.70;78.40
48019;DHT22;33786;48.690;9.562;2023-09-30T14:01:16;22.60;78.70
48019;DHT22;33786;48.690;9.562;2023-09-30T14:03:46;22.10;79.60
48019;DHT22;33786;48.690;9.562;2023-09-30T14:06:16;22.30;80.50
48019;DHT22;33786;48.690;9.562;2023-09-30T14:08:42;22.50;80.70
48019;DHT22;33786;48.690;9.562;2023-09-30T14:11:09;22.60;78.60
48019;DHT22;33786;48.690;9.562;2023-09-30T14:13:36;22.60;78.70
48019;DHT22;33786;48.690;9.562;2023-09-30T14:16:03;22.40;78.80
48019;DHT22;33786;48.690;9.562;2023-09-30T14:18:31;22.40;79.00
48019;DHT22;33786;48.690;9.562;2023-09-30T14:20:57;22.40;79.10
48019;DHT22;33786;48.690;9.562;2023-09-30T14:23:24;22.10;79.30
48019;DHT22;33786;48.690;9.562;2023-09-30T14:25:53;22.10;78.90
48019;DHT22;33786;48.690;9.562;2023-09-30T14:28:21;22.10;79.20
48019;DHT22;33786;48.690;9.562;2023-09-30T14:30:48;21.90;79.10
48019;DHT22;33786;48.690;9.562;2023-09-30T14:33:17;22.00;80.20
48019;DHT22;33786;48.690;9.562;2023-09-30T14:35:45;21.90;80.30
48019;DHT22;33786;48.690;9.562;2023-09-30T14:38:11;21.90;80.40
48019;DHT22;33786;48.690;9.562;2023-09-30T14:40:38;22.00;80.60
48019;DHT22;33786;48.690;9.562;2023-09-30T14:43:08;21.90;80.40
48019;DHT22;33786;48.690;9.562;2023-09-30T14:45:37;21.80;80.60
48019;DHT22;33786;48.690;9.562;2023-09-30T14:48:04;21.90;80.20
48019;DHT22;33786;48.690;9.562;2023-09-30T14:50:31;22.00;80.30
48019;DHT22;33786;48.690;9.562;2023-09-30T14:52:58;21.90;80.70
48019;DHT22;33786;48.690;9.562;2023-09-30T14:55:25;21.90;80.60
48019;DHT22;33786;48.690;9.562;2023-09-30T14:57:52;21.90;80.50
48019;DHT22;33786;48.690;9.562;2023-09-30T15:00:19;22.10;80.60
48019;DHT22;33786;48.690;9.562;2023-09-30T15:02:49;22.00;80.10
48019;DHT22;33786;48.690;9.562;2023-09-30T15:05:16;21.80;80.20
48019;DHT22;33786;48.690;9.562;2023-09-30T15:07:43;21.80;79.70
48019;DHT22;33786;48.690;9.562;2023-09-30T15:10:10;21.70;80.20
48019;DHT22;33786;48.690;9.562;2023-09-30T15:12:36;21.80;80.40
48019;DHT22;33786;48.690;9.562;2023-09-30T15:15:03;21.70;80.80
48019;DHT22;33786;48.690;9.562;2023-09-30T15:17:30;21.70;80.90
48019;DHT22;33786;48.690;9.562;2023-09-30T15:19:57;21.70;81.20
48019;DHT22;33786;48.690;9.562;2023-09-30T15:22:24;21.40;81.20
48019;DHT22;33786;48.690;9.562;2023-09-30T15:24:51;21.40;81.50
48019;DHT22;33786;48.690;9.562;2023-09-30T15:27:18;21.30;81.40
48019;DHT22;33786;48.690;9.562;2023-09-30T15:29:45;21.30;82.20
48019;DHT22;33786;48.690;9.562;2023-09-30T15:32:11;21.30;82.50
48019;DHT22;33786;48.690;9.562;2023-09-30T15:34:38;21.30;82.80
48019;DHT22;33786;48.690;9.562;2023-09-30T15:37:07;21.40;83.00
48019;DHT22;33786;48.690;9.562;2023-09-30T15:39:38;21.40;82.90
48019;DHT22;33786;48.690;9.562;2023-09-30T15:42:05;21.20;83.20
48019;DHT22;33786;48.690;9.562;2023-09-30T15:44:32;21.10;83.70
48019;DHT22;33786;48.690;9.562;2023-09-30T15:46:59;21.10;84.00
48019;DHT22;33786;48.690;9.562;2023-09-30T15:49:26;21.10;84.30
48019;DHT22;33786;48.690;9.562;2023-09-30T15:51:53;21.10;83.70
48019;DHT22;33786;48.690;9.562;2023-09-30T15:54:19;21.10;83.80